Time;durP1;ratioP1;P1;durP2;ratioP2;P2;SDS_P1;SDS_P2;PMS_P1;PMS_P2;Temp;Humidity;BMP_temperature;BMP_pressure;BME280_temperature;BME280_humidity;BME280_pressure;Samples;Min_cycle;Max_cycle;Signal;HPM_P1;HPM_P2
2022/07/21 00:00:18;;;;;;;0.00;0.00;;;;;;;;;;5052945;28;20188;-75
2022/07/21 00:02:44;;;;;;;0.00;0.00;;;;;;;;;;5062437;28;20204;-73
2022/07/21 00:05:12;;;;;;;0.00;0.00;;;;;;;;;;5052499;28;20204;-74
2022/07/21 00:07:38;;;;;;;0.00;0.00;;;;;;;;;;5062258;28;20216;-74
2022/07/21 00:10:05;;;;;;;0.00;0.00;;;;;;;;;;5063403;28;20288;-75
2022/07/21 00:12:31;;;;;;;0.00;0.00;;;;;;;;;;5035650;28;20204;-74
2022/07/21 00:14:58;;;;;;;0.00;0.00;;;;;;;;;;5063200;28;20227;-74
2022/07/21 00:17:24;;;;;;;0.00;0.00;;;;;;;;;;5052095;28;20303;-74
2022/07/21 00:19:51;;;;;;;0.00;0.00;;;;;;;;;;5063483;28;20447;-74
2022/07/21 00:22:18;;;;;;;0.00;0.00;;;;;;;;;;5051692;28;20286;-74
2022/07/21 00:24:45;;;;;;;0.00;0.00;;;;;;;;;;5063349;28;20442;-75
2022/07/21 00:27:11;;;;;;;0.00;0.00;;;;;;;;;;5051845;28;20449;-74
2022/07/21 00:29:37;;;;;;;0.00;0.00;;;;;;;;;;5063255;28;20203;-74
2022/07/21 00:32:05;;;;;;;0.00;0.00;;;;;;;;;;5051905;28;20262;-73
2022/07/21 00:34:32;;;;;;;0.00;0.00;;;;;;;;;;5063368;28;20212;-73
2022/07/21 00:36:58;;;;;;;0.00;0.00;;;;;;;;;;5051877;28;20495;-74
2022/07/21 00:39:26;;;;;;;0.00;0.00;;;;;;;;;;5062463;28;20199;-75
2022/07/21 00:41:52;;;;;;;0.00;0.00;;;;;;;;;;5051667;28;20239;-74
2022/07/21 00:44:22;;;;;;;0.00;0.00;;;;;;;;;;5062466;28;20275;-74
2022/07/21 00:46:48;;;;;;;0.00;0.00;;;;;;;;;;5051356;28;20236;-75
2022/07/21 00:49:15;;;;;;;0.00;0.00;;;;;;;;;;5062695;28;20275;-74
2022/07/21 00:51:41;;;;;;;0.00;0.00;;;;;;;;;;5051499;28;20249;-75
2022/07/21 00:54:08;;;;;;;0.00;0.00;;;;;;;;;;5062657;28;20282;-74
2022/07/21 00:56:36;;;;;;;0.00;0.00;;;;;;;;;;5051684;28;20506;-74
2022/07/21 00:59:02;;;;;;;0.00;0.00;;;;;;;;;;5062646;28;20438;-75
2022/07/21 01:01:28;;;;;;;0.00;0.00;;;;;;;;;;5051572;28;20318;-75
2022/07/21 01:03:55;;;;;;;0.00;0.00;;;;;;;;;;5062495;28;20238;-75
2022/07/21 01:06:22;;;;;;;0.00;0.00;;;;;;;;;;5051451;28;20239;-74
2022/07/21 01:08:48;;;;;;;0.00;0.00;;;;;;;;;;5062007;28;20232;-74
2022/07/21 01:11:14;;;;;;;0.00;0.00;;;;;;;;;;5051451;28;20296;-74
2022/07/21 01:13:43;;;;;;;0.00;0.00;;;;;;;;;;5061998;28;20363;-74
2022/07/21 01:16:09;;;;;;;0.00;0.00;;;;;;;;;;5052164;28;20243;-75
2022/07/21 01:18:36;;;;;;;0.00;0.00;;;;;;;;;;5066212;28;20299;-74
2022/07/21 01:21:04;;;;;;;0.00;0.00;;;;;;;;;;5055888;28;20471;-74
2022/07/21 01:23:32;;;;;;;0.00;0.00;;;;;;;;;;5065931;28;20245;-73
2022/07/21 01:25:58;;;;;;;0.00;0.00;;;;;;;;;;5055635;28;20429;-74
2022/07/21 01:28:25;;;;;;;0.00;0.00;;;;;;;;;;5065904;28;20270;-73
2022/07/21 01:30:51;;;;;;;0.00;0.00;;;;;;;;;;5055279;28;20239;-74
2022/07/21 01:33:17;;;;;;;0.00;0.00;;;;;;;;;;5065821;28;20215;-74
2022/07/21 01:35:45;;;;;;;0.00;0.00;;;;;;;;;;5055881;28;20497;-73
2022/07/21 01:43:40;;;;;;;0.00;0.00;;;;;;;;;;5065909;28;20188;-75
2022/07/21 01:46:06;;;;;;;0.00;0.00;;;;;;;;;;5055220;28;20240;-75
2022/07/21 01:48:33;;;;;;;0.00;0.00;;;;;;;;;;5065309;28;20279;-73
2022/07/21 01:50:59;;;;;;;0.00;0.00;;;;;;;;;;5055049;28;20251;-75
2022/07/21 01:53:25;;;;;;;0.00;0.00;;;;;;;;;;5065472;28;20202;-75
2022/07/21 01:55:52;;;;;;;0.00;0.00;;;;;;;;;;5055179;28;20302;-74
2022/07/21 01:58:19;;;;;;;0.00;0.00;;;;;;;;;;5065105;28;20250;-75
2022/07/21 02:00:46;;;;;;;0.00;0.00;;;;;;;;;;5055345;28;20401;-75
2022/07/21 02:03:12;;;;;;;0.00;0.00;;;;;;;;;;5064964;28;20218;-74
2022/07/21 02:05:38;;;;;;;0.10;0.10;;;;;;;;;;5055315;28;20372;-75
2022/07/21 02:08:05;;;;;;;0.00;0.00;;;;;;;;;;5064713;28;20228;-65
2022/07/21 02:10:31;;;;;;;0.00;0.00;;;;;;;;;;5055192;28;20334;-66
2022/07/21 02:12:57;;;;;;;0.00;0.00;;;;;;;;;;5064886;28;20219;-66
2022/07/21 02:15:25;;;;;;;0.00;0.00;;;;;;;;;;5055114;28;20296;-67
2022/07/21 02:17:51;;;;;;;0.00;0.00;;;;;;;;;;5064174;28;20228;-64
2022/07/21 02:20:17;;;;;;;0.00;0.00;;;;;;;;;;5054662;28;20275;-66
2022/07/21 02:22:45;;;;;;;0.00;0.00;;;;;;;;;;5064466;28;20223;-66
2022/07/21 02:25:11;;;;;;;0.00;0.00;;;;;;;;;;5055163;28;20515;-66
2022/07/21 02:27:37;;;;;;;0.00;0.00;;;;;;;;;;5063209;28;20208;-66
2022/07/21 02:30:04;;;;;;;0.00;0.00;;;;;;;;;;5065109;28;20313;-66
2022/07/21 02:32:32;;;;;;;0.00;0.00;;;;;;;;;;5037144;28;20275;-66
2022/07/21 02:34:58;;;;;;;0.00;0.00;;;;;;;;;;5064993;28;20218;-65
2022/07/21 02:37:25;;;;;;;0.00;0.00;;;;;;;;;;5053495;28;20310;-67
2022/07/21 02:39:51;;;;;;;0.00;0.00;;;;;;;;;;5064867;28;20210;-65
2022/07/21 02:42:17;;;;;;;0.00;0.00;;;;;;;;;;5053908;28;20244;-67
2022/07/21 02:44:44;;;;;;;0.00;0.00;;;;;;;;;;5065243;28;20208;-66
2022/07/21 02:47:10;;;;;;;0.00;0.00;;;;;;;;;;5053783;28;20415;-66
2022/07/21 02:49:38;;;;;;;0.00;0.00;;;;;;;;;;5065118;28;20224;-67
2022/07/21 02:52:05;;;;;;;0.00;0.00;;;;;;;;;;5053604;28;20551;-66
2022/07/21 02:54:31;;;;;;;0.00;0.00;;;;;;;;;;5065131;28;20218;-67
2022/07/21 02:56:58;;;;;;;0.00;0.00;;;;;;;;;;5053409;28;20632;-67
2022/07/21 02:59:24;;;;;;;0.00;0.00;;;;;;;;;;5064545;28;20279;-66
2022/07/21 03:01:50;;;;;;;0.00;0.00;;;;;;;;;;5053392;28;20246;-67
2022/07/21 03:04:17;;;;;;;0.00;0.00;;;;;;;;;;5064715;28;20478;-66
2022/07/21 03:06:44;;;;;;;0.00;0.00;;;;;;;;;;5053485;28;20239;-67
2022/07/21 03:09:11;;;;;;;0.00;0.00;;;;;;;;;;5064491;28;20447;-66
2022/07/21 03:11:37;;;;;;;0.00;0.00;;;;;;;;;;5053301;28;20307;-67
2022/07/21 03:14:03;;;;;;;0.00;0.00;;;;;;;;;;5064143;28;20204;-66
2022/07/21 03:16:30;;;;;;;0.00;0.00;;;;;;;;;;5053197;28;20282;-66
2022/07/21 03:18:56;;;;;;;0.00;0.00;;;;;;;;;;5064096;28;20224;-67
2022/07/21 03:21:23;;;;;;;0.00;0.00;;;;;;;;;;5053230;28;20294;-66
2022/07/21 03:23:51;;;;;;;0.00;0.00;;;;;;;;;;5063600;28;20215;-66
2022/07/21 03:26:17;;;;;;;0.00;0.00;;;;;;;;;;5053187;28;20240;-66
2022/07/21 03:28:44;;;;;;;0.10;0.10;;;;;;;;;;5063514;28;20375;-67
2022/07/21 03:31:10;;;;;;;0.00;0.00;;;;;;;;;;5053086;28;20244;-66
2022/07/21 03:33:37;;;;;;;0.00;0.00;;;;;;;;;;5063556;28;20436;-66
2022/07/21 03:36:04;;;;;;;0.00;0.00;;;;;;;;;;5053095;28;20578;-66
2022/07/21 03:38:30;;;;;;;0.00;0.00;;;;;;;;;;5063102;28;20212;-67
2022/07/21 03:40:58;;;;;;;0.00;0.00;;;;;;;;;;5053069;28;20334;-67
2022/07/21 03:43:24;;;;;;;0.00;0.00;;;;;;;;;;5063162;28;20204;-66
2022/07/21 03:45:51;;;;;;;0.00;0.00;;;;;;;;;;5053129;28;20247;-67
2022/07/21 03:48:17;;;;;;;0.00;0.00;;;;;;;;;;5063003;28;20271;-67
2022/07/21 03:50:43;;;;;;;0.00;0.00;;;;;;;;;;5052825;28;20240;-65
2022/07/21 03:53:10;;;;;;;0.00;0.00;;;;;;;;;;5063178;28;20192;-66
2022/07/21 03:55:36;;;;;;;0.00;0.00;;;;;;;;;;5052883;28;20239;-65
2022/07/21 03:58:05;;;;;;;0.00;0.00;;;;;;;;;;5062683;28;20272;-66
2022/07/21 04:00:34;;;;;;;0.00;0.00;;;;;;;;;;5052851;28;20242;-66
2022/07/21 04:03:00;;;;;;;0.00;0.00;;;;;;;;;;5062661;28;20216;-66
2022/07/21 04:05:27;;;;;;;0.00;0.00;;;;;;;;;;5052366;28;20210;-66
2022/07/21 04:07:54;;;;;;;0.00;0.00;;;;;;;;;;5062473;28;20209;-67
2022/07/21 04:10:21;;;;;;;0.00;0.00;;;;;;;;;;5052970;28;20230;-66
2022/07/21 04:12:48;;;;;;;0.00;0.00;;;;;;;;;;5062168;28;20325;-67
2022/07/21 04:15:16;;;;;;;0.00;0.00;;;;;;;;;;5052697;28;20275;-65
2022/07/21 04:17:43;;;;;;;0.00;0.00;;;;;;;;;;5062374;28;20562;-66
2022/07/21 04:20:10;;;;;;;0.00;0.00;;;;;;;;;;5053136;28;20224;-67
2022/07/21 04:22:36;;;;;;;0.00;0.00;;;;;;;;;;5062174;28;20206;-67
2022/07/21 04:25:04;;;;;;;0.00;0.00;;;;;;;;;;5063205;28;20452;-67
2022/07/21 04:27:30;;;;;;;0.25;0.25;;;;;;;;;;5051684;28;20240;-67
2022/07/21 04:29:56;;;;;;;0.00;0.00;;;;;;;;;;5062850;28;20279;-68
2022/07/21 04:32:24;;;;;;;0.00;0.00;;;;;;;;;;5051665;28;20238;-65
2022/07/21 04:34:50;;;;;;;0.00;0.00;;;;;;;;;;5062859;28;20215;-66
2022/07/21 04:37:17;;;;;;;0.00;0.00;;;;;;;;;;5051175;28;20255;-67
2022/07/21 04:39:43;;;;;;;0.00;0.00;;;;;;;;;;5062915;28;20242;-66
2022/07/21 04:42:09;;;;;;;0.00;0.00;;;;;;;;;;5051219;28;20473;-68
2022/07/21 04:44:36;;;;;;;0.00;0.00;;;;;;;;;;5062970;28;20219;-67
2022/07/21 04:47:02;;;;;;;0.00;0.00;;;;;;;;;;5051297;28;20250;-66
2022/07/21 04:49:30;;;;;;;0.00;0.00;;;;;;;;;;5061932;28;20205;-66
2022/07/21 04:51:56;;;;;;;0.00;0.00;;;;;;;;;;5050332;28;20287;-67
2022/07/21 04:54:22;;;;;;;0.00;0.00;;;;;;;;;;5062566;28;20205;-67
2022/07/21 04:56:50;;;;;;;0.00;0.00;;;;;;;;;;5051504;28;20240;-66
2022/07/21 04:59:16;;;;;;;0.00;0.00;;;;;;;;;;5062525;28;20392;-67
2022/07/21 05:01:42;;;;;;;0.00;0.00;;;;;;;;;;5051468;28;20492;-66
2022/07/21 05:04:09;;;;;;;0.00;0.00;;;;;;;;;;5062120;28;20460;-66
2022/07/21 05:06:36;;;;;;;0.00;0.00;;;;;;;;;;5051470;28;20240;-67
2022/07/21 05:09:03;;;;;;;0.00;0.00;;;;;;;;;;5062029;28;20389;-67
2022/07/21 05:11:30;;;;;;;0.00;0.00;;;;;;;;;;5051408;28;20298;-67
2022/07/21 05:13:57;;;;;;;0.00;0.00;;;;;;;;;;5062250;28;20265;-66
2022/07/21 05:16:23;;;;;;;0.00;0.00;;;;;;;;;;5051220;28;20244;-67
2022/07/21 05:18:49;;;;;;;0.00;0.00;;;;;;;;;;5061930;28;20295;-67
2022/07/21 05:21:16;;;;;;;0.00;0.00;;;;;;;;;;5051521;28;20274;-67
2022/07/21 05:23:45;;;;;;;0.00;0.00;;;;;;;;;;5062130;28;20204;-67
2022/07/21 05:26:12;;;;;;;0.00;0.00;;;;;;;;;;5051428;28;20310;-68
2022/07/21 05:28:38;;;;;;;0.00;0.00;;;;;;;;;;5061539;28;20204;-66
2022/07/21 05:31:05;;;;;;;0.00;0.00;;;;;;;;;;5051303;28;20262;-67
2022/07/21 05:33:31;;;;;;;0.00;0.00;;;;;;;;;;5062003;28;20204;-67
2022/07/21 05:35:57;;;;;;;0.00;0.00;;;;;;;;;;5051401;28;20286;-68
2022/07/21 05:38:24;;;;;;;0.00;0.00;;;;;;;;;;5061406;28;20419;-67
2022/07/21 05:40:51;;;;;;;0.00;0.00;;;;;;;;;;5051632;28;20490;-67
2022/07/21 05:43:18;;;;;;;0.00;0.00;;;;;;;;;;5061448;28;20411;-68
2022/07/21 05:45:44;;;;;;;0.00;0.00;;;;;;;;;;5051681;28;20240;-66
2022/07/21 05:48:10;;;;;;;0.00;0.00;;;;;;;;;;5061376;28;20204;-67
2022/07/21 05:50:36;;;;;;;0.00;0.00;;;;;;;;;;5051710;28;20243;-67
2022/07/21 05:53:03;;;;;;;0.00;0.00;;;;;;;;;;5061142;28;20247;-67
2022/07/21 05:55:29;;;;;;;0.00;0.00;;;;;;;;;;5051765;28;20500;-67
2022/07/21 05:57:57;;;;;;;0.00;0.00;;;;;;;;;;5061289;28;20542;-67
2022/07/21 06:00:26;;;;;;;0.00;0.00;;;;;;;;;;5051524;28;20204;-65
2022/07/21 06:02:54;;;;;;;0.00;0.00;;;;;;;;;;5062771;28;20372;-66
2022/07/21 06:05:21;;;;;;;0.00;0.00;;;;;;;;;;5055465;28;20204;-66
2022/07/21 06:07:48;;;;;;;0.00;0.00;;;;;;;;;;5064764;28;20283;-66
2022/07/21 06:10:14;;;;;;;0.00;0.00;;;;;;;;;;5054972;28;20242;-66
2022/07/21 06:12:41;;;;;;;0.00;0.00;;;;;;;;;;5064503;28;20232;-66
2022/07/21 06:15:09;;;;;;;0.08;0.08;;;;;;;;;;5055019;28;20204;-66
2022/07/21 06:17:39;;;;;;;0.00;0.00;;;;;;;;;;5064598;28;20228;-66
2022/07/21 06:20:06;;;;;;;0.00;0.00;;;;;;;;;;5059736;28;20204;-67
2022/07/21 06:22:32;;;;;;;0.00;0.00;;;;;;;;;;5064160;28;20275;-67
2022/07/21 06:24:59;;;;;;;0.00;0.00;;;;;;;;;;5065285;28;20454;-66
2022/07/21 06:27:25;;;;;;;0.00;0.00;;;;;;;;;;5053832;28;20250;-66
2022/07/21 06:29:51;;;;;;;0.00;0.00;;;;;;;;;;5065324;28;20272;-67
2022/07/21 06:32:19;;;;;;;0.00;0.00;;;;;;;;;;5053668;28;20294;-66
2022/07/21 06:34:45;;;;;;;0.00;0.00;;;;;;;;;;5064948;28;20296;-67
2022/07/21 06:37:12;;;;;;;0.00;0.00;;;;;;;;;;5053278;28;20488;-68
2022/07/21 06:39:41;;;;;;;0.00;0.00;;;;;;;;;;5065216;28;20477;-66
2022/07/21 06:42:07;;;;;;;0.00;0.00;;;;;;;;;;5053588;28;20295;-67
2022/07/21 06:44:34;;;;;;;0.00;0.00;;;;;;;;;;5065034;28;20368;-67
2022/07/21 06:47:04;;;;;;;0.00;0.00;;;;;;;;;;5053488;28;20492;-67
2022/07/21 06:49:32;;;;;;;0.00;0.00;;;;;;;;;;5064806;28;20192;-68
2022/07/21 06:51:58;;;;;;;0.10;0.10;;;;;;;;;;5053287;28;20434;-67
2022/07/21 06:54:24;;;;;;;0.00;0.00;;;;;;;;;;5064759;28;20208;-67
2022/07/21 06:56:51;;;;;;;0.00;0.00;;;;;;;;;;5053376;28;20299;-70
2022/07/21 06:59:17;;;;;;;0.00;0.00;;;;;;;;;;5064329;28;20215;-66
2022/07/21 07:01:43;;;;;;;0.05;0.05;;;;;;;;;;5053189;28;20239;-67
2022/07/21 07:04:10;;;;;;;0.00;0.00;;;;;;;;;;5064500;28;20267;-66
2022/07/21 07:06:37;;;;;;;0.00;0.00;;;;;;;;;;5053529;28;20282;-67
2022/07/21 07:09:04;;;;;;;0.00;0.00;;;;;;;;;;5064295;28;20403;-66
2022/07/21 07:11:30;;;;;;;0.00;0.00;;;;;;;;;;5053355;28;20240;-65
2022/07/21 07:13:56;;;;;;;0.10;0.10;;;;;;;;;;5063548;28;20209;-67
2022/07/21 07:16:23;;;;;;;0.00;0.00;;;;;;;;;;5053412;28;20311;-67
2022/07/21 07:18:49;;;;;;;0.00;0.00;;;;;;;;;;5063667;28;20224;-67
2022/07/21 07:21:16;;;;;;;0.00;0.00;;;;;;;;;;5053272;28;20248;-67
2022/07/21 07:23:43;;;;;;;0.00;0.00;;;;;;;;;;5063954;28;20366;-68
2022/07/21 07:26:10;;;;;;;0.00;0.00;;;;;;;;;;5053062;28;20244;-67
2022/07/21 07:28:36;;;;;;;0.00;0.00;;;;;;;;;;5063893;28;20392;-67
2022/07/21 07:31:02;;;;;;;0.00;0.00;;;;;;;;;;5053301;28;20262;-67
2022/07/21 07:33:29;;;;;;;0.00;0.00;;;;;;;;;;5063357;28;20287;-69
2022/07/21 07:35:56;;;;;;;0.00;0.00;;;;;;;;;;5053137;28;20239;-67
2022/07/21 07:38:22;;;;;;;0.00;0.00;;;;;;;;;;5063153;28;20224;-66
2022/07/21 07:40:50;;;;;;;0.00;0.00;;;;;;;;;;5053320;28;20240;-67
2022/07/21 07:43:16;;;;;;;0.00;0.00;;;;;;;;;;5063061;28;20200;-67
2022/07/21 07:45:42;;;;;;;0.00;0.00;;;;;;;;;;5053214;28;20256;-67
2022/07/21 07:48:09;;;;;;;0.00;0.00;;;;;;;;;;5063030;28;20394;-65
2022/07/21 07:50:35;;;;;;;0.00;0.00;;;;;;;;;;5053461;28;20563;-68
2022/07/21 07:53:02;;;;;;;0.08;0.08;;;;;;;;;;5062683;28;20224;-67
2022/07/21 07:55:28;;;;;;;0.00;0.00;;;;;;;;;;5053029;28;20303;-66
2022/07/21 07:57:56;;;;;;;0.00;0.00;;;;;;;;;;5062626;28;20313;-67
2022/07/21 08:00:22;;;;;;;0.00;0.00;;;;;;;;;;5053251;28;20204;-67
2022/07/21 08:02:49;;;;;;;0.00;0.00;;;;;;;;;;5062419;28;20238;-67
2022/07/21 08:05:16;;;;;;;0.00;0.00;;;;;;;;;;5052715;28;20279;-67
2022/07/21 08:07:42;;;;;;;0.00;0.00;;;;;;;;;;5061744;28;20226;-67
2022/07/21 08:10:09;;;;;;;0.00;0.00;;;;;;;;;;5053233;28;20438;-67
2022/07/21 08:12:36;;;;;;;0.00;0.00;;;;;;;;;;5062252;28;20235;-67
2022/07/21 08:15:04;;;;;;;0.10;0.10;;;;;;;;;;5063455;28;20280;-67
2022/07/21 08:17:30;;;;;;;0.00;0.00;;;;;;;;;;5035320;28;20271;-67
2022/07/21 08:19:57;;;;;;;0.00;0.00;;;;;;;;;;5062943;28;20204;-67
2022/07/21 08:22:23;;;;;;;0.00;0.00;;;;;;;;;;5051797;28;20318;-67
2022/07/21 08:24:50;;;;;;;0.00;0.00;;;;;;;;;;5062782;28;20271;-67
2022/07/21 08:27:16;;;;;;;0.00;0.00;;;;;;;;;;5051861;28;20501;-66
2022/07/21 08:29:42;;;;;;;0.00;0.00;;;;;;;;;;5063153;28;20204;-66
2022/07/21 08:32:10;;;;;;;0.00;0.00;;;;;;;;;;5051516;28;20407;-66
2022/07/21 08:34:37;;;;;;;0.00;0.00;;;;;;;;;;5062778;28;20369;-67
2022/07/21 08:37:04;;;;;;;0.00;0.00;;;;;;;;;;5051351;28;20252;-66
2022/07/21 08:39:30;;;;;;;0.00;0.00;;;;;;;;;;5063021;28;20271;-67
2022/07/21 08:41:57;;;;;;;0.00;0.00;;;;;;;;;;5051230;28;20240;-67
2022/07/21 08:44:24;;;;;;;0.00;0.00;;;;;;;;;;5062544;28;20210;-67
2022/07/21 08:46:52;;;;;;;0.00;0.00;;;;;;;;;;5050986;28;20240;-66
2022/07/21 08:49:22;;;;;;;0.00;0.00;;;;;;;;;;5062187;28;20276;-67
2022/07/21 08:51:49;;;;;;;0.00;0.00;;;;;;;;;;5051334;28;20311;-68
2022/07/21 08:54:15;;;;;;;0.00;0.00;;;;;;;;;;5062331;28;20262;-68
2022/07/21 08:56:41;;;;;;;0.00;0.00;;;;;;;;;;5051346;28;20255;-67
2022/07/21 08:59:08;;;;;;;0.00;0.00;;;;;;;;;;5062180;28;20239;-67
2022/07/21 09:01:35;;;;;;;0.00;0.00;;;;;;;;;;5051338;28;20240;-67
2022/07/21 09:04:16;;;;;;;0.00;0.00;;;;;;;;;;5062436;28;20238;-67
2022/07/21 09:06:52;;;;;;;0.00;0.00;;;;;;;;;;5051107;28;20440;-68
2022/07/21 09:09:19;;;;;;;0.00;0.00;;;;;;;;;;5062413;28;20192;-66
2022/07/21 09:11:45;;;;;;;0.00;0.00;;;;;;;;;;5051256;28;20246;-67
2022/07/21 09:14:13;;;;;;;0.00;0.00;;;;;;;;;;5062211;28;20270;-66
2022/07/21 09:16:40;;;;;;;0.00;0.00;;;;;;;;;;5051104;28;20315;-67
2022/07/21 09:19:07;;;;;;;0.00;0.00;;;;;;;;;;5062039;28;20227;-66
2022/07/21 09:21:34;;;;;;;0.00;0.00;;;;;;;;;;5051220;28;20239;-66
2022/07/21 09:24:15;;;;;;;0.00;0.00;;;;;;;;;;5062223;28;20208;-67
2022/07/21 09:27:01;;;;;;;0.00;0.00;;;;;;;;;;5050976;28;20262;-68
2022/07/21 09:29:27;;;;;;;0.00;0.00;;;;;;;;;;5062246;28;20204;-67
2022/07/21 09:31:53;;;;;;;0.00;0.00;;;;;;;;;;5051035;28;20425;-68
2022/07/21 09:34:20;;;;;;;0.00;0.00;;;;;;;;;;5061945;28;20463;-67
2022/07/21 09:36:55;;;;;;;0.00;0.00;;;;;;;;;;5050850;28;20240;-67
2022/07/21 09:39:40;;;;;;;0.00;0.00;;;;;;;;;;5065933;28;20503;-67
2022/07/21 09:42:12;;;;;;;0.00;0.00;;;;;;;;;;5054432;28;20252;-67
2022/07/21 09:44:39;;;;;;;0.00;0.00;;;;;;;;;;5066282;28;20255;-66
2022/07/21 09:47:10;;;;;;;0.00;0.00;;;;;;;;;;5054481;28;20243;-65
2022/07/21 09:49:37;;;;;;;0.00;0.00;;;;;;;;;;5065880;28;20263;-67
2022/07/21 09:52:18;;;;;;;0.00;0.00;;;;;;;;;;5054392;28;20319;-67
2022/07/21 09:54:46;;;;;;;0.00;0.00;;;;;;;;;;5066049;28;20192;-67
2022/07/21 09:57:13;;;;;;;0.00;0.00;;;;;;;;;;5054449;28;20402;-66
2022/07/21 09:59:39;;;;;;;0.00;0.00;;;;;;;;;;5065603;28;20310;-67
2022/07/21 10:02:07;;;;;;;0.00;0.00;;;;;;;;;;5054437;28;20240;-66
2022/07/21 10:04:35;;;;;;;0.00;0.00;;;;;;;;;;5065631;28;20267;-67
2022/07/21 10:07:02;;;;;;;0.00;0.00;;;;;;;;;;5054247;28;20633;-67
2022/07/21 10:09:28;;;;;;;0.00;0.00;;;;;;;;;;5065460;28;20220;-68
2022/07/21 10:11:56;;;;;;;0.00;0.00;;;;;;;;;;5054367;28;20262;-66
2022/07/21 10:14:23;;;;;;;0.00;0.00;;;;;;;;;;5065320;28;20239;-68
2022/07/21 10:16:49;;;;;;;0.00;0.00;;;;;;;;;;5054158;28;20262;-67
2022/07/21 10:19:20;;;;;;;0.00;0.00;;;;;;;;;;5065382;28;20295;-68
2022/07/21 10:21:50;;;;;;;0.00;0.00;;;;;;;;;;5054096;28;20240;-66
2022/07/21 10:24:17;;;;;;;0.00;0.00;;;;;;;;;;5065179;28;20271;-66
2022/07/21 10:26:58;;;;;;;0.00;0.00;;;;;;;;;;5054134;28;20461;-65
2022/07/21 10:29:43;;;;;;;0.00;0.00;;;;;;;;;;5065459;28;20333;-68
2022/07/21 10:32:11;;;;;;;0.00;0.00;;;;;;;;;;5053881;28;20306;-66
2022/07/21 10:34:38;;;;;;;0.00;0.00;;;;;;;;;;5064832;28;20388;-67
2022/07/21 10:37:04;;;;;;;0.00;0.00;;;;;;;;;;5053588;28;20247;-66
2022/07/21 10:39:32;;;;;;;0.00;0.00;;;;;;;;;;5064888;28;20403;-66
2022/07/21 10:42:01;;;;;;;0.00;0.00;;;;;;;;;;5053678;28;20483;-67
2022/07/21 10:44:41;;;;;;;0.00;0.00;;;;;;;;;;5064836;28;20200;-66
2022/07/21 10:47:08;;;;;;;0.00;0.00;;;;;;;;;;5053450;28;20239;-67
2022/07/21 10:49:49;;;;;;;0.00;0.00;;;;;;;;;;5063427;28;20249;-67
2022/07/21 10:52:34;;;;;;;0.00;0.00;;;;;;;;;;5053202;28;20310;-67
2022/07/21 10:55:23;;;;;;;0.00;0.00;;;;;;;;;;5064741;28;20227;-67
2022/07/21 10:58:09;;;;;;;0.00;0.00;;;;;;;;;;5032034;28;20257;-66
2022/07/21 11:00:36;;;;;;;0.00;0.00;;;;;;;;;;5054145;28;20235;-69
2022/07/21 11:03:03;;;;;;;0.00;0.00;;;;;;;;;;5064018;28;20208;-68
2022/07/21 11:05:32;;;;;;;0.00;0.00;;;;;;;;;;5054090;28;20429;-66
2022/07/21 11:08:15;;;;;;;0.00;0.00;;;;;;;;;;5063484;28;20283;-67
2022/07/21 11:10:43;;;;;;;0.00;0.00;;;;;;;;;;5053788;28;20519;-67
2022/07/21 11:13:10;;;;;;;0.00;0.00;;;;;;;;;;5063309;28;20251;-66
2022/07/21 11:15:55;;;;;;;0.00;0.00;;;;;;;;;;5053626;28;20263;-67
2022/07/21 11:18:22;;;;;;;0.00;0.00;;;;;;;;;;5063528;28;20531;-67
2022/07/21 11:21:07;;;;;;;0.00;0.00;;;;;;;;;;5053499;28;20490;-66
2022/07/21 11:23:37;;;;;;;0.00;0.00;;;;;;;;;;5063749;28;20208;-67
2022/07/21 11:26:04;;;;;;;0.00;0.00;;;;;;;;;;5053148;28;20252;-66
2022/07/21 11:28:30;;;;;;;0.00;0.00;;;;;;;;;;5063686;28;20438;-65
2022/07/21 11:31:06;;;;;;;0.00;0.00;;;;;;;;;;5053132;28;20315;-67
2022/07/21 11:33:32;;;;;;;0.00;0.00;;;;;;;;;;5062988;28;20222;-66
2022/07/21 11:35:59;;;;;;;0.00;0.00;;;;;;;;;;5052807;28;20243;-67
2022/07/21 11:38:27;;;;;;;0.00;0.00;;;;;;;;;;5063210;28;20219;-66
2022/07/21 11:40:53;;;;;;;0.00;0.00;;;;;;;;;;5052636;28;20260;-66
2022/07/21 11:43:20;;;;;;;0.00;0.00;;;;;;;;;;5063051;28;20209;-68
2022/07/21 11:45:51;;;;;;;0.00;0.00;;;;;;;;;;5052993;28;20240;-67
2022/07/21 11:48:30;;;;;;;0.00;0.00;;;;;;;;;;5063035;28;20212;-67
2022/07/21 11:50:59;;;;;;;0.00;0.00;;;;;;;;;;5052883;28;20251;-68
2022/07/21 11:53:27;;;;;;;0.00;0.00;;;;;;;;;;5063020;28;20258;-67
2022/07/21 11:55:53;;;;;;;0.00;0.00;;;;;;;;;;5052812;28;20444;-67
2022/07/21 11:58:20;;;;;;;0.00;0.00;;;;;;;;;;5062751;28;20295;-66
2022/07/21 12:00:47;;;;;;;0.00;0.00;;;;;;;;;;5052164;28;20311;-68
2022/07/21 12:03:14;;;;;;;0.00;0.00;;;;;;;;;;5062760;28;20376;-66
2022/07/21 12:05:40;;;;;;;0.00;0.00;;;;;;;;;;5052709;28;20240;-66
2022/07/21 12:08:07;;;;;;;0.00;0.00;;;;;;;;;;5062631;28;20208;-67
2022/07/21 12:10:36;;;;;;;0.00;0.00;;;;;;;;;;5052752;28;20258;-66
2022/07/21 12:13:04;;;;;;;0.00;0.00;;;;;;;;;;5062080;28;20274;-67
2022/07/21 12:15:33;;;;;;;0.00;0.00;;;;;;;;;;5052470;28;20243;-66
2022/07/21 12:18:01;;;;;;;0.00;0.00;;;;;;;;;;5062096;28;20228;-67
2022/07/21 12:20:28;;;;;;;0.00;0.00;;;;;;;;;;5052646;28;20467;-66
2022/07/21 12:22:56;;;;;;;0.00;0.00;;;;;;;;;;5062208;28;20204;-63
2022/07/21 12:25:31;;;;;;;0.00;0.00;;;;;;;;;;5052652;28;20200;-67
2022/07/21 12:27:59;;;;;;;0.00;0.00;;;;;;;;;;5061770;28;20204;-68
2022/07/21 12:30:32;;;;;;;0.00;0.00;;;;;;;;;;5052593;28;20245;-67
2022/07/21 12:33:02;;;;;;;0.00;0.00;;;;;;;;;;5061845;28;20405;-66
2022/07/21 12:35:28;;;;;;;0.00;0.00;;;;;;;;;;5052185;28;20410;-67
2022/07/21 12:37:56;;;;;;;0.00;0.00;;;;;;;;;;5061710;28;20216;-67
2022/07/21 12:40:22;;;;;;;0.00;0.00;;;;;;;;;;5052642;28;20430;-67
2022/07/21 12:42:49;;;;;;;0.00;0.00;;;;;;;;;;5061965;28;20271;-66
2022/07/21 12:45:18;;;;;;;0.00;0.00;;;;;;;;;;5052099;28;20267;-66
2022/07/21 12:47:44;;;;;;;0.00;0.00;;;;;;;;;;5061700;28;20407;-66
2022/07/21 12:50:15;;;;;;;0.00;0.00;;;;;;;;;;5052334;28;20275;-66
2022/07/21 12:52:42;;;;;;;0.00;0.00;;;;;;;;;;5061837;28;20271;-65
2022/07/21 12:55:08;;;;;;;0.00;0.00;;;;;;;;;;5051992;28;20287;-67
2022/07/21 12:57:35;;;;;;;0.00;0.00;;;;;;;;;;5061554;28;20239;-67
2022/07/21 13:00:02;;;;;;;0.00;0.00;;;;;;;;;;5062363;28;20263;-65
2022/07/21 13:02:30;;;;;;;0.00;0.00;;;;;;;;;;5051213;28;20565;-67
2022/07/21 13:04:56;;;;;;;0.00;0.00;;;;;;;;;;5062515;28;20208;-66
2022/07/21 13:07:22;;;;;;;0.00;0.00;;;;;;;;;;5050965;28;20243;-67
2022/07/21 13:09:49;;;;;;;0.00;0.00;;;;;;;;;;5062081;28;20249;-67
2022/07/21 13:12:15;;;;;;;0.00;0.00;;;;;;;;;;5050358;28;20484;-66
2022/07/21 13:14:42;;;;;;;0.00;0.00;;;;;;;;;;5062529;28;20266;-67
2022/07/21 13:17:09;;;;;;;0.00;0.00;;;;;;;;;;5050894;28;20243;-67
2022/07/21 13:19:37;;;;;;;0.00;0.00;;;;;;;;;;5062216;28;20240;-65
2022/07/21 13:22:04;;;;;;;0.00;0.00;;;;;;;;;;5050922;28;20307;-65
2022/07/21 13:24:30;;;;;;;0.00;0.00;;;;;;;;;;5062382;28;20263;-65
2022/07/21 13:26:56;;;;;;;0.00;0.00;;;;;;;;;;5051250;28;20462;-66
2022/07/21 13:29:23;;;;;;;0.00;0.00;;;;;;;;;;5062007;28;20210;-66
2022/07/21 13:31:49;;;;;;;0.00;0.00;;;;;;;;;;5050887;28;20307;-66
2022/07/21 13:34:16;;;;;;;0.00;0.00;;;;;;;;;;5062211;28;20291;-65
2022/07/21 13:36:43;;;;;;;0.00;0.00;;;;;;;;;;5051160;28;20255;-64
2022/07/21 13:39:10;;;;;;;0.00;0.00;;;;;;;;;;5061485;28;20251;-64
2022/07/21 13:41:37;;;;;;;0.00;0.00;;;;;;;;;;5051143;28;20441;-65
2022/07/21 13:44:04;;;;;;;0.00;0.00;;;;;;;;;;5062042;28;20207;-66
2022/07/21 13:46:30;;;;;;;0.00;0.00;;;;;;;;;;5050907;28;20584;-65
2022/07/21 13:48:57;;;;;;;0.00;0.00;;;;;;;;;;5061482;28;20285;-65
2022/07/21 13:51:23;;;;;;;0.00;0.00;;;;;;;;;;5051063;28;20318;-65
2022/07/21 13:53:52;;;;;;;0.00;0.00;;;;;;;;;;5061728;28;20230;-67
2022/07/21 13:56:18;;;;;;;0.00;0.00;;;;;;;;;;5050529;28;20282;-66
2022/07/21 13:58:45;;;;;;;0.00;0.00;;;;;;;;;;5061121;28;20264;-65
2022/07/21 14:01:12;;;;;;;0.00;0.00;;;;;;;;;;5051092;28;20318;-64
2022/07/21 14:03:39;;;;;;;0.00;0.00;;;;;;;;;;5061562;28;20204;-66
2022/07/21 14:06:05;;;;;;;0.00;0.00;;;;;;;;;;5051050;28;20251;-66
2022/07/21 14:08:32;;;;;;;0.00;0.00;;;;;;;;;;5061003;28;20210;-65
2022/07/21 14:11:00;;;;;;;0.00;0.00;;;;;;;;;;5050891;28;20247;-65
2022/07/21 14:13:26;;;;;;;0.00;0.00;;;;;;;;;;5060852;28;20275;-65
2022/07/21 14:15:53;;;;;;;0.00;0.00;;;;;;;;;;5050684;28;20246;-65
2022/07/21 14:18:19;;;;;;;0.00;0.00;;;;;;;;;;5061108;28;20285;-65
2022/07/21 14:20:47;;;;;;;0.00;0.00;;;;;;;;;;5050961;28;20626;-66
2022/07/21 14:23:14;;;;;;;0.00;0.00;;;;;;;;;;5061438;28;20204;-65
2022/07/21 14:25:43;;;;;;;0.00;0.00;;;;;;;;;;5054675;28;20465;-65
2022/07/21 14:28:11;;;;;;;0.00;0.00;;;;;;;;;;5064326;28;20208;-66
2022/07/21 14:30:38;;;;;;;0.05;0.05;;;;;;;;;;5054306;28;20298;-66
2022/07/21 14:33:04;;;;;;;0.00;0.00;;;;;;;;;;5064272;28;20211;-66
2022/07/21 14:35:31;;;;;;;0.00;0.00;;;;;;;;;;5054242;28;20243;-66
2022/07/21 14:37:57;;;;;;;0.00;0.00;;;;;;;;;;5063615;28;20282;-66
2022/07/21 14:40:23;;;;;;;0.00;0.00;;;;;;;;;;5054573;28;20214;-66
2022/07/21 14:42:51;;;;;;;0.00;0.00;;;;;;;;;;5063942;28;20204;-66
2022/07/21 14:45:19;;;;;;;0.00;0.00;;;;;;;;;;5054402;28;20200;-66
2022/07/21 14:47:46;;;;;;;0.00;0.00;;;;;;;;;;5063831;28;20208;-66
2022/07/21 14:50:13;;;;;;;0.00;0.00;;;;;;;;;;5054602;28;20231;-65